Time;durP1;ratioP1;P1;durP2;ratioP2;P2;SDS_P1;SDS_P2;PMS_P1;PMS_P2;Temp;Humidity;BMP_temperature;BMP_pressure;BME280_temperature;BME280_humidity;BME280_pressure;Samples;Min_cycle;Max_cycle;Signal;HPM_P1;HPM_P2
2021/12/17 00:01:09;;;;;;;16.07;12.53;;;;;;;6.58;98.02;102910.66;5054971;28;20750;-76
2021/12/17 00:03:40;;;;;;;17.20;13.20;;;;;;;6.63;98.77;102906.50;5052450;28;20231;-75
2021/12/17 00:06:29;;;;;;;14.63;12.03;;;;;;;6.66;98.03;102897.94;5053146;28;20197;-76
2021/12/17 00:08:57;;;;;;;15.13;12.47;;;;;;;6.66;99.07;102892.75;5052885;28;20684;-76
2021/12/17 00:11:23;;;;;;;14.33;12.60;;;;;;;6.67;98.21;102894.53;5052933;28;20249;-76
2021/12/17 00:13:54;;;;;;;14.87;11.83;;;;;;;6.81;98.13;102905.41;5052881;28;20196;-76
2021/12/17 00:16:24;;;;;;;13.53;11.23;;;;;;;6.94;97.74;102920.63;5052616;28;20190;-76
2021/12/17 00:19:07;;;;;;;11.97;10.53;;;;;;;6.90;96.71;102939.50;5053005;28;20295;-76
2021/12/17 00:49:15;;;;;;;12.27;10.73;;;;;;;6.90;96.53;102973.25;5051191;28;20240;-76
2021/12/17 00:51:58;;;;;;;11.30;8.77;;;;;;;7.00;96.52;102983.16;5051822;28;20785;-75
2021/12/17 00:54:33;;;;;;;13.97;10.27;;;;;;;6.92;96.01;102982.00;5051936;28;20219;-75
2021/12/17 00:57:02;;;;;;;16.00;11.70;;;;;;;6.91;96.49;102982.81;5044963;28;20223;-76
2021/12/17 00:59:29;;;;;;;12.63;10.83;;;;;;;6.94;96.48;102976.03;5052086;28;20208;-76
2021/12/17 01:02:00;;;;;;;11.40;10.20;;;;;;;6.97;95.81;102983.91;5055867;28;20357;-76
2021/12/17 01:04:26;;;;;;;14.50;12.60;;;;;;;6.97;95.73;102988.22;5052076;28;20207;-75
2021/12/17 01:06:54;;;;;;;13.73;12.23;;;;;;;7.02;95.67;102988.41;5051483;28;20683;-76
2021/12/17 01:09:25;;;;;;;19.10;12.10;;;;;;;7.05;95.49;102991.09;5052072;28;20203;-76
2021/12/17 01:11:52;;;;;;;13.27;11.73;;;;;;;6.98;95.63;102984.81;5051476;28;20224;-75
2021/12/17 01:14:18;;;;;;;12.47;11.13;;;;;;;6.97;95.52;103003.81;5051937;28;20208;-75
2021/12/17 01:16:45;;;;;;;15.47;12.33;;;;;;;6.96;95.63;102989.06;5051320;28;20258;-76
2021/12/17 01:19:21;;;;;;;13.00;11.53;;;;;;;6.97;95.88;102983.03;5051873;28;20207;-75
2021/12/17 01:22:02;;;;;;;16.87;11.80;;;;;;;7.00;95.48;102988.34;5051333;28;20227;-76
2021/12/17 01:24:37;;;;;;;14.03;12.73;;;;;;;7.07;95.30;103005.03;5051782;28;20205;-76
2021/12/17 01:35:25;;;;;;;14.97;12.13;;;;;;;6.96;95.72;103017.63;5044979;28;20212;-75
2021/12/17 01:40:59;;;;;;;16.10;13.13;;;;;;;6.94;95.34;103027.94;5051538;28;20229;-76
2021/12/17 01:43:30;;;;;;;13.67;12.10;;;;;;;6.94;94.86;103019.28;5045802;28;20216;-76
2021/12/17 01:45:57;;;;;;;16.93;12.63;;;;;;;6.87;95.37;103009.47;5050368;28;20687;-76
2021/12/17 01:48:31;;;;;;;14.53;13.03;;;;;;;6.83;95.05;103020.59;5051159;28;20207;-75
2021/12/17 01:56:51;;;;;;;18.37;14.07;;;;;;;6.74;96.38;102975.28;5051189;28;20224;-76
2021/12/17 01:59:21;;;;;;;17.63;14.47;;;;;;;6.66;96.48;102978.38;5051235;28;20282;-76
2021/12/17 02:01:47;;;;;;;18.70;14.20;;;;;;;6.66;96.30;102968.91;5054928;28;20224;-76
2021/12/17 02:04:14;;;;;;;18.83;15.23;;;;;;;6.68;96.58;102974.13;5045931;28;20304;-75
2021/12/17 02:06:41;;;;;;;17.30;15.33;;;;;;;6.65;96.56;102984.44;5050900;28;20201;-76
2021/12/17 02:09:25;;;;;;;24.43;15.50;;;;;;;6.65;96.76;102989.63;5050944;28;20204;-76
2021/12/17 02:12:19;;;;;;;19.47;15.13;;;;;;;6.64;96.99;102974.84;5050522;28;20219;-75
2021/12/17 02:20:46;;;;;;;20.27;14.50;;;;;;;6.53;97.29;102948.50;5053368;28;20254;-76
2021/12/17 02:28:47;;;;;;;17.37;14.57;;;;;;;6.62;97.23;102953.16;5053454;28;20198;-76
2021/12/17 02:31:25;;;;;;;21.03;15.13;;;;;;;6.60;97.39;102960.00;5050833;28;20741;-75
2021/12/17 02:33:52;;;;;;;17.57;14.47;;;;;;;6.61;97.15;102965.25;5051011;28;20199;-76
2021/12/17 02:36:24;;;;;;;22.50;16.53;;;;;;;6.72;96.48;102982.13;5055105;28;20198;-75
2021/12/17 02:38:51;;;;;;;23.83;15.13;;;;;;;6.78;95.70;102989.28;5052159;28;20207;-75
2021/12/17 02:46:46;;;;;;;19.83;15.13;;;;;;;6.52;97.18;102945.03;5053789;28;20638;-75
2021/12/17 02:49:13;;;;;;;23.27;16.27;;;;;;;6.46;97.46;102933.53;5053891;28;20196;-75
2021/12/17 02:51:41;;;;;;;21.47;16.77;;;;;;;6.39;97.57;102915.97;5053594;28;20235;-76
2021/12/17 02:54:09;;;;;;;22.00;15.77;;;;;;;6.39;98.22;102900.41;5053736;28;20663;-76
2021/12/17 02:56:36;;;;;;;19.10;16.83;;;;;;;6.41;98.10;102906.53;5054287;28;20641;-76
2021/12/17 02:59:03;;;;;;;23.03;16.20;;;;;;;6.32;98.34;102902.78;5053711;28;20200;-76
2021/12/17 03:01:29;;;;;;;18.57;16.27;;;;;;;6.30;98.02;102883.66;5052290;28;20595;-76
2021/12/17 03:03:57;;;;;;;26.37;17.37;;;;;;;6.37;97.80;102887.38;5048980;28;20313;-76
2021/12/17 03:06:23;;;;;;;22.57;16.30;;;;;;;6.44;97.95;102897.16;5053681;28;20659;-76
2021/12/17 03:08:51;;;;;;;25.10;16.77;;;;;;;6.48;97.10;102924.09;5053661;28;20225;-76
2021/12/17 03:11:17;;;;;;;23.63;16.43;;;;;;;6.54;96.78;102945.06;5053094;28;20227;-75
2021/12/17 03:13:45;;;;;;;20.40;15.90;;;;;;;6.62;96.78;102955.75;5053650;28;20292;-75
2021/12/17 03:16:24;;;;;;;21.57;15.10;;;;;;;6.62;96.82;102956.66;5051096;28;20203;-75
2021/12/17 03:19:03;;;;;;;25.07;15.33;;;;;;;6.60;95.62;102968.69;5053665;28;20200;-75
2021/12/17 03:24:18;;;;;;;19.90;15.40;;;;;;;6.61;96.31;102954.88;5051469;28;20214;-75
2021/12/17 03:26:45;;;;;;;25.27;16.30;;;;;;;6.56;96.80;102946.00;5052818;28;20196;-76
2021/12/17 03:29:13;;;;;;;21.53;16.37;;;;;;;6.58;96.02;102947.00;5050980;28;20206;-76
2021/12/17 03:31:40;;;;;;;20.73;15.80;;;;;;;6.64;96.81;102947.22;5050385;28;20318;-76
2021/12/17 03:34:17;;;;;;;23.43;17.27;;;;;;;6.66;96.18;102944.66;5049896;28;20874;-75
2021/12/17 03:36:44;;;;;;;17.60;14.87;;;;;;;6.72;96.75;102938.00;5053003;28;20650;-76
2021/12/17 03:39:10;;;;;;;17.53;14.80;;;;;;;6.70;96.21;102955.22;5053450;28;20199;-76
2021/12/17 03:41:39;;;;;;;18.43;13.77;;;;;;;6.80;96.21;102971.13;5052448;28;20231;-76
2021/12/17 03:44:08;;;;;;;22.10;14.87;;;;;;;6.80;95.66;102969.44;5052087;28;20239;-76
2021/12/17 03:46:35;;;;;;;22.10;15.60;;;;;;;6.73;96.46;102957.03;5052278;28;20275;-76
2021/12/17 03:49:02;;;;;;;16.17;13.90;;;;;;;6.78;96.75;102955.53;5051808;28;20256;-76
2021/12/17 03:51:31;;;;;;;20.23;13.10;;;;;;;6.90;96.75;102947.31;5051629;28;20805;-76
2021/12/17 03:53:59;;;;;;;24.27;16.47;;;;;;;6.89;96.15;102945.53;5050394;28;20205;-76
2021/12/17 03:56:27;;;;;;;24.57;15.53;;;;;;;6.97;96.40;102942.38;5052231;28;20231;-76
2021/12/17 03:58:57;;;;;;;27.03;16.40;;;;;;;7.00;96.68;102943.31;5051150;28;20670;-77
2021/12/17 04:01:27;;;;;;;23.47;16.43;;;;;;;7.09;97.44;102928.06;5052878;28;20656;-77
2021/12/17 04:03:53;;;;;;;25.47;16.03;;;;;;;7.14;96.37;102927.41;5051723;28;20224;-77
2021/12/17 04:06:19;;;;;;;24.03;15.50;;;;;;;7.15;96.89;102939.56;5052937;28;20199;-77
2021/12/17 04:08:46;;;;;;;23.90;15.73;;;;;;;7.09;95.95;102949.72;5052140;28;20736;-77
2021/12/17 04:11:17;;;;;;;27.77;16.77;;;;;;;7.09;97.43;102941.03;5052470;28;20630;-77
2021/12/17 04:13:51;;;;;;;26.17;15.73;;;;;;;7.04;96.95;102927.03;5051557;28;20243;-77
2021/12/17 04:16:23;;;;;;;29.07;17.03;;;;;;;6.90;98.46;102904.03;5051080;28;20227;-76
2021/12/17 04:18:50;;;;;;;29.37;17.93;;;;;;;6.86;99.45;102872.72;5052044;28;20192;-76
2021/12/17 04:21:16;;;;;;;23.07;16.43;;;;;;;6.86;100.00;102836.38;5052125;28;20256;-77
2021/12/17 04:23:44;;;;;;;27.93;17.63;;;;;;;6.73;100.00;102804.78;5052225;28;20250;-76
2021/12/17 04:26:11;;;;;;;35.77;19.80;;;;;;;6.60;100.00;102760.19;5051972;28;20200;-76
2021/12/17 04:28:43;;;;;;;43.37;19.20;;;;;;;6.47;100.00;102715.66;5052405;28;20262;-77
2021/12/17 04:31:09;;;;;;;42.17;19.60;;;;;;;6.43;100.00;102679.19;5048794;28;20236;-77
2021/12/17 04:33:38;;;;;;;45.10;19.77;;;;;;;6.43;100.00;102651.53;5048710;28;20195;-77
2021/12/17 04:36:05;;;;;;;50.77;22.23;;;;;;;6.36;100.00;102632.28;5051070;28;20825;-77
2021/12/17 04:38:32;;;;;;;52.80;22.03;;;;;;;6.35;100.00;102620.13;5052018;28;20195;-76
2021/12/17 04:41:15;;;;;;;54.70;22.07;;;;;;;6.48;100.00;102623.13;5051386;28;20716;-76
2021/12/17 04:43:52;;;;;;;47.83;20.90;;;;;;;6.55;100.00;102609.53;5049503;28;20191;-76
2021/12/17 04:46:28;;;;;;;50.60;21.17;;;;;;;6.44;100.00;102608.28;5051471;28;20204;-77
2021/12/17 04:57:20;;;;;;;37.83;19.23;;;;;;;6.41;100.00;102629.84;5050104;28;20281;-76
2021/12/17 04:59:46;;;;;;;41.67;19.87;;;;;;;6.52;100.00;102636.28;5051269;28;20681;-76
2021/12/17 05:02:15;;;;;;;46.70;20.50;;;;;;;6.60;100.00;102641.72;5049369;28;20238;-77
2021/12/17 05:04:43;;;;;;;47.10;21.03;;;;;;;6.60;100.00;102653.78;5048218;28;20277;-76
2021/12/17 05:07:12;;;;;;;37.00;19.30;;;;;;;6.60;100.00;102658.97;5051587;28;20200;-76
2021/12/17 05:09:46;;;;;;;46.40;20.70;;;;;;;6.60;100.00;102664.16;5052730;28;20249;-76
2021/12/17 05:20:33;;;;;;;41.47;19.17;;;;;;;6.68;100.00;102665.31;5051462;28;20231;-76
2021/12/17 05:23:00;;;;;;;46.13;20.60;;;;;;;6.59;100.00;102662.41;5052937;28;20239;-76
2021/12/17 05:25:29;;;;;;;52.63;21.37;;;;;;;6.50;100.00;102642.22;5051329;28;20589;-76
2021/12/17 05:28:00;;;;;;;54.37;21.93;;;;;;;6.50;100.00;102637.03;5051519;28;20677;-76
2021/12/17 05:30:26;;;;;;;50.20;21.67;;;;;;;6.56;100.00;102639.81;5054856;28;20241;-76
2021/12/17 05:32:53;;;;;;;49.63;21.23;;;;;;;6.53;100.00;102647.53;5051101;28;20252;-76
2021/12/17 05:35:19;;;;;;;53.77;23.00;;;;;;;6.50;100.00;102648.31;5051096;28;20206;-76
2021/12/17 05:37:47;;;;;;;55.83;22.57;;;;;;;6.49;100.00;102649.13;5051204;28;20256;-76
2021/12/17 05:40:14;;;;;;;49.97;22.17;;;;;;;6.53;100.00;102656.19;5051450;28;20633;-76
2021/12/17 05:42:41;;;;;;;58.03;22.80;;;;;;;6.54;100.00;102652.78;5051098;28;20647;-77
2021/12/17 05:45:20;;;;;;;59.20;22.97;;;;;;;6.53;100.00;102643.22;5051482;28;20328;-76
2021/12/17 05:47:47;;;;;;;50.93;22.13;;;;;;;6.51;100.00;102647.47;5051068;28;20199;-76
2021/12/17 05:50:14;;;;;;;50.27;22.17;;;;;;;6.63;100.00;102646.13;5051272;28;20220;-76
2021/12/17 05:52:40;;;;;;;49.47;21.97;;;;;;;6.61;100.00;102648.66;5050966;28;20194;-76
2021/12/17 05:55:08;;;;;;;53.07;23.23;;;;;;;6.50;100.00;102643.13;5042298;28;20193;-76
2021/12/17 05:57:35;;;;;;;64.07;23.57;;;;;;;6.50;100.00;102629.25;5051414;28;20254;-78
2021/12/17 06:00:01;;;;;;;64.20;23.47;;;;;;;6.50;100.00;102634.44;5051975;28;20230;-76
2021/12/17 06:02:28;;;;;;;63.20;22.80;;;;;;;6.49;100.00;102617.13;5053722;28;20674;-76
2021/12/17 06:04:54;;;;;;;61.97;23.70;;;;;;;6.53;100.00;102619.84;5051111;28;20590;-77
2021/12/17 06:07:27;;;;;;;54.87;23.23;;;;;;;6.51;100.00;102616.34;5042686;28;20640;-77
2021/12/17 06:09:54;;;;;;;62.80;23.43;;;;;;;6.53;100.00;102626.75;5051724;28;20199;-76
2021/12/17 06:12:22;;;;;;;67.23;23.33;;;;;;;6.49;100.00;102627.50;5050760;28;20236;-76
2021/12/17 06:14:48;;;;;;;66.57;23.80;;;;;;;6.40;100.00;102627.19;5051170;28;20196;-76
2021/12/17 06:17:14;;;;;;;65.80;24.07;;;;;;;6.36;100.00;102618.41;5050714;28;20230;-76
2021/12/17 06:19:41;;;;;;;64.90;23.67;;;;;;;6.36;100.00;102618.41;5050601;28;20200;-76
2021/12/17 06:22:07;;;;;;;65.10;23.27;;;;;;;6.36;100.00;102611.53;5050400;28;20228;-76
2021/12/17 06:24:33;;;;;;;63.17;24.43;;;;;;;6.41;100.00;102622.06;5050915;28;20224;-76
2021/12/17 06:27:00;;;;;;;57.80;23.93;;;;;;;6.43;100.00;102625.56;5050748;28;20631;-76
2021/12/17 06:29:27;;;;;;;56.67;22.53;;;;;;;6.49;100.00;102628.38;5050449;28;20203;-76
2021/12/17 06:31:54;;;;;;;61.87;23.23;;;;;;;6.49;100.00;102625.78;5052772;28;20796;-76
2021/12/17 06:34:20;;;;;;;78.40;23.40;;;;;;;6.45;100.00;102626.50;5049625;28;20200;-76
2021/12/17 06:36:47;;;;;;;55.93;22.50;;;;;;;6.52;100.00;102633.69;5050827;28;20196;-76
2021/12/17 06:39:13;;;;;;;58.10;22.20;;;;;;;6.50;100.00;102631.84;5050907;28;20207;-76
2021/12/17 06:41:39;;;;;;;60.77;23.07;;;;;;;6.51;100.00;102641.41;5050848;28;20250;-79
2021/12/17 06:44:07;;;;;;;55.13;21.93;;;;;;;6.52;100.00;102641.47;5051010;28;20202;-76
2021/12/17 06:46:48;;;;;;;64.33;23.83;;;;;;;6.59;100.00;102646.84;5050307;28;20268;-76
2021/12/17 06:49:24;;;;;;;74.43;24.13;;;;;;;6.57;100.00;102646.78;5050595;28;20196;-76
2021/12/17 06:54:52;;;;;;;64.73;22.07;;;;;;;6.46;100.00;102642.94;5050839;28;20578;-75
2021/12/17 06:58:03;;;;;;;80.63;23.97;;;;;;;6.41;100.00;102639.34;5051853;28;20187;-77
2021/12/17 07:00:36;;;;;;;59.07;22.43;;;;;;;6.39;100.00;102633.22;5056184;28;20233;-77
2021/12/17 07:11:36;;;;;;;75.23;23.30;;;;;;;6.40;100.00;102616.81;5054448;28;20225;-76
2021/12/17 07:22:30;;;;;;;80.43;24.80;;;;;;;6.34;100.00;102612.28;5053685;28;20215;-76
2021/12/17 07:33:12;;;;;;;80.40;22.07;;;;;;;6.31;100.00;102625.16;5046835;28;20214;-76
2021/12/17 07:35:53;;;;;;;86.10;22.40;;;;;;;6.31;100.00;102618.25;5055224;28;20200;-77
2021/12/17 07:38:40;;;;;;;82.50;22.13;;;;;;;6.29;100.00;102619.94;5056811;28;20727;-78
2021/12/17 07:41:07;;;;;;;108.20;22.87;;;;;;;6.29;100.00;102613.88;5056493;28;20227;-77
2021/12/17 07:43:39;;;;;;;128.10;23.83;;;;;;;6.28;100.00;102615.59;5056071;28;20629;-77
2021/12/17 07:46:09;;;;;;;97.07;22.63;;;;;;;6.33;100.00;102619.19;5054826;28;20228;-77
2021/12/17 07:48:35;;;;;;;93.03;22.53;;;;;;;6.42;100.00;102625.53;5058032;28;20208;-79
2021/12/17 07:51:06;;;;;;;70.80;20.10;;;;;;;6.41;100.00;102629.84;5059409;28;20277;-80
2021/12/17 07:53:34;;;;;;;65.53;19.00;;;;;;;6.49;100.00;102637.88;5058485;28;20207;-79
2021/12/17 07:56:01;;;;;;;67.63;18.40;;;;;;;6.45;100.00;102636.00;5058103;28;20214;-79
2021/12/17 07:58:28;;;;;;;65.30;19.17;;;;;;;6.50;100.00;102639.63;5056910;28;20204;-80
2021/12/17 08:00:55;;;;;;;74.00;18.10;;;;;;;6.47;100.00;102643.00;5055740;28;20222;-80
2021/12/17 08:03:21;;;;;;;66.20;17.60;;;;;;;6.47;100.00;102640.41;5054966;28;20253;-81
2021/12/17 08:05:48;;;;;;;54.43;17.33;;;;;;;6.43;100.00;102630.75;5052690;28;20285;-76
2021/12/17 08:08:16;;;;;;;73.47;17.73;;;;;;;6.42;100.00;102625.53;5053670;28;20205;-78
2021/12/17 08:10:42;;;;;;;72.13;16.47;;;;;;;6.45;100.00;102630.81;5053550;28;20298;-75
2021/12/17 08:13:16;;;;;;;61.63;16.57;;;;;;;6.50;100.00;102640.53;5049131;28;20221;-77
2021/12/17 08:15:49;;;;;;;56.17;16.77;;;;;;;6.52;100.00;102649.25;5048533;28;20199;-77
2021/12/17 08:24:26;;;;;;;40.67;14.27;;;;;;;6.60;100.00;102648.59;5051526;28;20269;-77
2021/12/17 08:26:56;;;;;;;35.83;14.43;;;;;;;6.61;100.00;102664.22;5050684;28;20678;-79
2021/12/17 08:29:32;;;;;;;41.37;13.73;;;;;;;6.68;100.00;102671.41;5053513;28;20559;-79
2021/12/17 08:32:00;;;;;;;35.03;13.27;;;;;;;6.63;100.00;102670.34;5050840;28;20234;-77
2021/12/17 08:34:27;;;;;;;28.80;12.30;;;;;;;6.64;100.00;102677.31;5049296;28;20215;-76
2021/12/17 08:36:53;;;;;;;19.93;11.57;;;;;;;6.62;100.00;102681.56;5052881;28;20678;-78
2021/12/17 08:39:22;;;;;;;21.13;10.90;;;;;;;6.66;100.00;102688.63;5052889;28;20199;-77
2021/12/17 08:41:53;;;;;;;17.17;10.20;;;;;;;6.67;100.00;102687.78;5052846;28;20223;-79
2021/12/17 08:44:20;;;;;;;14.43;9.83;;;;;;;6.69;100.00;102708.59;5053986;28;20200;-77
2021/12/17 08:46:47;;;;;;;17.07;10.40;;;;;;;6.74;100.00;102715.72;5053139;28;20644;-78
2021/12/17 08:49:14;;;;;;;12.37;9.60;;;;;;;6.81;100.00;102723.72;5053155;28;20673;-77
2021/12/17 08:51:42;;;;;;;11.43;8.97;;;;;;;6.76;100.00;102752.13;5053299;28;20228;-78
2021/12/17 08:54:09;;;;;;;12.50;9.43;;;;;;;6.74;100.00;102759.84;5053165;28;20501;-77
2021/12/17 08:56:42;;;;;;;10.40;8.50;;;;;;;6.84;100.00;102787.00;5052487;28;20727;-78
2021/12/17 08:59:09;;;;;;;10.03;8.13;;;;;;;6.80;100.00;102802.41;5050550;28;20291;-78
2021/12/17 09:01:36;;;;;;;8.93;8.03;;;;;;;6.82;100.00;102819.81;5053811;28;20224;-78
2021/12/17 09:04:03;;;;;;;8.47;7.10;;;;;;;6.87;100.00;102839.00;5048807;28;20203;-77
2021/12/17 09:06:29;;;;;;;8.87;7.97;;;;;;;6.97;100.00;102861.00;5051694;28;20228;-77
2021/12/17 09:08:57;;;;;;;9.70;8.70;;;;;;;6.94;100.00;102877.34;5052211;28;20205;-77
2021/12/17 09:11:25;;;;;;;10.80;8.37;;;;;;;6.86;100.00;102891.78;5052262;28;20213;-76
2021/12/17 09:13:55;;;;;;;10.47;8.33;;;;;;;6.87;100.00;102890.06;5051248;28;20205;-76
2021/12/17 09:16:21;;;;;;;9.30;8.33;;;;;;;6.94;100.00;102882.53;5052794;28;20196;-77
2021/12/17 09:18:48;;;;;;;11.13;8.87;;;;;;;6.88;100.00;102887.53;5052644;28;20195;-77
2021/12/17 09:21:16;;;;;;;10.23;9.17;;;;;;;6.95;100.00;102896.41;5051742;28;20775;-78
2021/12/17 09:23:42;;;;;;;11.60;9.97;;;;;;;7.01;100.00;102899.22;5052151;28;20199;-77
2021/12/17 09:26:09;;;;;;;11.63;10.23;;;;;;;7.03;100.00;102912.25;5052109;28;20591;-77
2021/12/17 09:28:36;;;;;;;11.70;10.60;;;;;;;6.96;100.00;102924.16;5049517;28;20207;-77
2021/12/17 09:31:05;;;;;;;12.37;11.07;;;;;;;6.99;100.00;102931.16;5051175;28;20314;-77
2021/12/17 09:33:31;;;;;;;14.03;11.83;;;;;;;6.84;100.00;102929.78;5048182;28;20250;-78
2021/12/17 09:35:58;;;;;;;12.57;11.27;;;;;;;6.93;100.00;102931.81;5052984;28;20204;-77
2021/12/17 09:38:24;;;;;;;14.07;11.33;;;;;;;6.86;100.00;102925.53;5051798;28;20200;-77
2021/12/17 09:40:51;;;;;;;13.43;11.50;;;;;;;6.88;100.00;102923.88;5051292;28;20218;-77
2021/12/17 09:43:18;;;;;;;13.83;10.63;;;;;;;6.93;100.00;102916.25;5050714;28;20200;-77
2021/12/17 09:45:45;;;;;;;12.93;11.37;;;;;;;6.99;100.00;102913.84;5050758;28;20225;-76
2021/12/17 09:48:14;;;;;;;13.20;11.83;;;;;;;7.12;100.00;102907.41;5050715;28;20287;-77
2021/12/17 09:50:41;;;;;;;14.90;12.60;;;;;;;6.93;100.00;102917.13;5050491;28;20274;-76
2021/12/17 09:53:08;;;;;;;12.43;11.00;;;;;;;6.87;100.00;102913.44;5050892;28;20208;-76
2021/12/17 09:55:34;;;;;;;12.50;11.20;;;;;;;6.86;100.00;102894.38;5049573;28;20193;-78
2021/12/17 09:58:01;;;;;;;12.13;10.60;;;;;;;6.84;100.00;102887.34;5052794;28;20204;-78
2021/12/17 10:00:28;;;;;;;12.70;11.40;;;;;;;6.74;100.00;102888.75;5054672;28;20769;-78
2021/12/17 10:02:55;;;;;;;13.00;11.17;;;;;;;6.83;100.00;102890.78;5049109;28;20206;-77
2021/12/17 10:05:27;;;;;;;10.87;9.77;;;;;;;6.74;100.00;102883.56;5052003;28;20203;-79
2021/12/17 10:07:55;;;;;;;9.57;8.57;;;;;;;6.65;100.00;102876.28;5051988;28;20573;-78
2021/12/17 10:10:22;;;;;;;9.67;7.83;;;;;;;6.64;100.00;102868.44;5052298;28;20216;-78
2021/12/17 10:12:53;;;;;;;7.57;6.80;;;;;;;6.65;100.00;102859.84;5052002;28;20199;-77
2021/12/17 10:15:21;;;;;;;7.33;5.70;;;;;;;6.68;100.00;102870.31;5051631;28;20196;-77
2021/12/17 10:17:53;;;;;;;5.30;4.80;;;;;;;6.63;100.00;102893.53;5050829;28;20258;-77
2021/12/17 10:20:20;;;;;;;6.03;5.30;;;;;;;6.77;100.00;102907.00;5049145;28;20212;-78
2021/12/17 10:22:56;;;;;;;5.70;5.07;;;;;;;6.81;100.00;102923.59;5050924;28;20676;-78
2021/12/17 10:25:24;;;;;;;6.00;5.50;;;;;;;6.83;100.00;102953.97;5050704;28;20617;-78
2021/12/17 10:27:57;;;;;;;8.33;5.50;;;;;;;6.83;100.00;102974.72;5050511;28;20553;-77
2021/12/17 10:30:24;;;;;;;5.30;4.60;;;;;;;6.81;100.00;102994.56;5051410;28;20236;-77
2021/12/17 10:32:52;;;;;;;5.40;4.90;;;;;;;6.80;100.00;103002.28;5047648;28;20201;-76
2021/12/17 10:35:21;;;;;;;6.70;4.60;;;;;;;6.85;100.00;102999.03;5050509;28;20690;-77
2021/12/17 10:37:52;;;;;;;4.23;3.83;;;;;;;6.73;100.00;102999.44;5052237;28;20208;-77
2021/12/17 10:40:22;;;;;;;4.17;3.77;;;;;;;6.80;100.00;103012.66;5050643;28;20251;-77
2021/12/17 10:42:58;;;;;;;4.83;3.17;;;;;;;6.64;99.87;103019.88;5054775;28;20690;-78
2021/12/17 10:45:27;;;;;;;3.77;3.47;;;;;;;6.63;100.00;103025.88;5055897;28;20211;-77
2021/12/17 10:51:16;;;;;;;4.53;4.13;;;;;;;6.67;99.36;103025.19;5086358;27;21091;-78
2021/12/17 10:53:45;;;;;;;4.73;4.07;;;;;;;6.81;99.79;103033.50;5068205;28;20206;-78
2021/12/17 10:56:16;;;;;;;3.50;3.23;;;;;;;6.74;99.29;103053.16;5071956;28;20258;-78
2021/12/17 10:58:56;;;;;;;4.03;3.73;;;;;;;6.71;98.64;103072.91;5071441;28;20230;-79
2021/12/17 11:01:36;;;;;;;4.50;4.10;;;;;;;6.75;98.45;103067.88;5069420;28;20224;-78
2021/12/17 11:04:09;;;;;;;4.20;3.80;;;;;;;6.75;98.47;103064.41;5070011;28;20229;-78
2021/12/17 11:06:49;;;;;;;6.47;5.90;;;;;;;6.71;99.13;103045.22;5071762;28;20217;-79
2021/12/17 11:09:44;;;;;;;9.17;7.13;;;;;;;6.64;99.58;103042.34;5071866;28;20222;-77
2021/12/17 11:12:33;;;;;;;7.83;7.13;;;;;;;6.60;98.94;103041.34;5071131;28;20805;-79
2021/12/17 11:15:10;;;;;;;7.57;6.87;;;;;;;6.57;98.74;103042.09;5068852;28;20212;-79
2021/12/17 11:17:36;;;;;;;8.23;7.43;;;;;;;6.58;99.41;103024.84;5071414;28;20623;-78
2021/12/17 11:20:07;;;;;;;9.37;8.33;;;;;;;6.68;99.67;103020.88;5070497;28;20622;-78
2021/12/17 11:25:34;;;;;;;9.90;8.53;;;;;;;6.61;99.46;103006.78;5091355;27;20553;-78
2021/12/17 11:28:01;;;;;;;8.67;7.87;;;;;;;6.57;99.15;103003.16;5090192;28;20238;-77
2021/12/17 11:30:30;;;;;;;8.97;8.07;;;;;;;6.60;99.91;103009.31;5085449;28;20223;-78
2021/12/17 11:33:01;;;;;;;8.50;7.60;;;;;;;6.61;99.92;102996.41;5066702;28;20264;-79
2021/12/17 11:35:29;;;;;;;7.57;6.77;;;;;;;6.66;100.00;102992.28;5061462;28;20207;-78
2021/12/17 11:38:00;;;;;;;6.27;5.67;;;;;;;6.73;100.00;102990.78;5062087;28;20193;-78
2021/12/17 11:40:30;;;;;;;6.17;5.57;;;;;;;6.85;99.89;102995.56;5062528;28;20229;-78
2021/12/17 11:43:20;;;;;;;5.80;5.20;;;;;;;6.86;99.30;103002.53;5061952;28;20726;-78
2021/12/17 11:45:58;;;;;;;6.47;5.43;;;;;;;6.94;99.80;102998.50;5061962;28;20200;-78
2021/12/17 11:48:27;;;;;;;6.00;5.40;;;;;;;6.97;99.37;103002.09;5060902;28;20189;-79
2021/12/17 11:51:06;;;;;;;5.97;5.40;;;;;;;6.91;99.98;103000.97;5062783;28;20581;-78
2021/12/17 11:53:33;;;;;;;6.03;4.73;;;;;;;6.95;99.29;103002.88;5062426;28;20190;-78
2021/12/17 11:56:03;;;;;;;6.77;5.07;;;;;;;7.06;99.58;103008.47;5062053;28;20207;-78
2021/12/17 11:58:49;;;;;;;4.30;3.90;;;;;;;6.85;100.00;102993.84;5060786;28;20205;-77
2021/12/17 12:01:50;;;;;;;4.77;4.20;;;;;;;6.84;99.74;102988.59;5064182;28;20286;-79
2021/12/17 12:04:26;;;;;;;4.67;4.27;;;;;;;6.82;100.00;102972.06;5063186;28;20220;-78
2021/12/17 12:07:03;;;;;;;6.90;6.20;;;;;;;6.92;100.00;102971.59;5060477;28;20295;-78
2021/12/17 12:09:56;;;;;;;7.40;6.67;;;;;;;6.93;100.00;102968.16;5062030;28;20196;-78
2021/12/17 12:12:23;;;;;;;6.40;4.53;;;;;;;6.75;100.00;102974.44;5063073;28;20205;-78
2021/12/17 12:14:51;;;;;;;5.43;5.03;;;;;;;6.84;100.00;102971.31;5061782;28;20195;-78
2021/12/17 12:17:50;;;;;;;4.80;4.30;;;;;;;6.81;100.00;102962.53;5059799;28;20748;-78
2021/12/17 12:20:39;;;;;;;7.17;6.47;;;;;;;6.89;100.00;102953.31;5062040;28;20227;-78
2021/12/17 12:23:15;;;;;;;7.70;6.90;;;;;;;6.96;100.00;102951.00;5062174;28;20261;-78
2021/12/17 12:25:42;;;;;;;8.67;7.77;;;;;;;6.98;100.00;102945.88;5060898;28;20714;-77
2021/12/17 12:28:09;;;;;;;6.83;5.47;;;;;;;7.00;100.00;102951.09;5059699;28;20197;-79
2021/12/17 12:30:39;;;;;;;5.63;5.13;;;;;;;7.01;100.00;102947.69;5061420;28;20220;-77
2021/12/17 12:33:07;;;;;;;7.77;6.70;;;;;;;7.05;100.00;102937.44;5062234;28;20196;-78
2021/12/17 12:35:34;;;;;;;5.50;5.00;;;;;;;7.07;100.00;102940.09;5052194;28;20255;-78
2021/12/17 12:38:14;;;;;;;7.17;6.47;;;;;;;6.89;100.00;102922.16;5044197;28;20241;-78
2021/12/17 12:40:45;;;;;;;7.03;5.70;;;;;;;6.94;100.00;102916.31;5044761;28;20228;-78
2021/12/17 12:43:25;;;;;;;6.83;5.73;;;;;;;6.96;100.00;102903.38;5046698;28;20196;-78
2021/12/17 12:45:53;;;;;;;7.20;6.07;;;;;;;6.99;100.00;102906.06;5047682;28;20201;-78
2021/12/17 12:48:32;;;;;;;8.07;7.30;;;;;;;6.74;100.00;102897.41;5046465;28;20210;-77
2021/12/17 12:51:15;;;;;;;8.33;6.60;;;;;;;6.72;100.00;102867.91;5045848;28;20717;-78
2021/12/17 12:53:46;;;;;;;9.33;6.53;;;;;;;6.81;100.00;102856.97;5046612;28;20604;-77
2021/12/17 12:56:17;;;;;;;8.10;7.10;;;;;;;6.87;100.00;102854.59;5045248;28;20203;-77
2021/12/17 12:58:49;;;;;;;16.00;8.13;;;;;;;6.77;100.00;102857.69;5045555;28;20276;-77
2021/12/17 13:01:20;;;;;;;11.07;8.07;;;;;;;6.84;100.00;102849.31;5050682;28;20229;-78
2021/12/17 13:03:47;;;;;;;9.83;8.57;;;;;;;6.90;100.00;102846.91;5049739;28;20193;-77
2021/12/17 13:06:17;;;;;;;8.80;7.90;;;;;;;6.97;100.00;102859.28;5044884;28;20202;-77
2021/12/17 13:08:44;;;;;;;9.70;8.70;;;;;;;6.92;100.00;102865.16;5045405;28;20191;-77
2021/12/17 13:11:10;;;;;;;10.60;9.60;;;;;;;6.88;100.00;102858.09;5046141;28;20707;-78
2021/12/17 13:13:44;;;;;;;8.13;7.33;;;;;;;6.81;100.00;102856.09;5044294;28;20235;-78
2021/12/17 13:16:15;;;;;;;10.10;8.67;;;;;;;6.96;100.00;102839.34;5044668;28;20236;-78
2021/12/17 13:21:42;;;;;;;7.37;6.57;;;;;;;7.04;100.00;102839.63;5045761;28;20235;-77
2021/12/17 13:24:13;;;;;;;6.40;5.80;;;;;;;7.32;100.00;102840.53;5045269;28;20727;-77
2021/12/17 13:26:42;;;;;;;6.10;5.57;;;;;;;7.32;100.00;102915.88;5045398;28;20854;-77
2021/12/17 13:29:12;;;;;;;5.53;4.87;;;;;;;7.35;98.71;102991.31;5045090;28;20253;-77
2021/12/17 13:31:42;;;;;;;6.87;5.30;;;;;;;7.25;97.67;103038.59;5049043;28;20739;-77
2021/12/17 13:34:14;;;;;;;5.17;4.77;;;;;;;7.24;97.23;103052.44;5047549;28;20224;-76
2021/12/17 13:36:52;;;;;;;6.63;5.80;;;;;;;7.30;96.48;103048.31;5052084;28;20211;-77